createdAt,value
2022-08-14T00:01:27.056Z,16.80
2022-08-14T00:03:05.775Z,16.80
2022-08-14T00:04:42.469Z,16.70
2022-08-14T00:06:25.755Z,16.70
2022-08-14T00:08:03.153Z,16.70
2022-08-14T00:10:02.313Z,16.70
2022-08-14T00:11:48.646Z,16.60
2022-08-14T00:13:29.071Z,16.60
2022-08-14T00:15:08.969Z,16.60
2022-08-14T00:16:48.261Z,16.50
2022-08-14T00:18:30.978Z,16.50
2022-08-14T00:20:31.066Z,16.50
2022-08-14T00:22:10.919Z,16.50
2022-08-14T00:24:03.113Z,16.50
2022-08-14T00:25:41.819Z,16.50
2022-08-14T00:27:17.788Z,16.40
2022-08-14T00:28:55.321Z,16.40
2022-08-14T00:30:28.190Z,16.40
2022-08-14T00:32:01.573Z,16.40
2022-08-14T00:33:55.081Z,16.30
2022-08-14T00:36:37.098Z,16.40
2022-08-14T00:37:30.640Z,16.30
2022-08-14T00:39:09.625Z,16.30
2022-08-14T00:40:46.283Z,16.30
2022-08-14T00:42:55.600Z,16.30
2022-08-14T00:44:31.915Z,16.30
2022-08-14T00:46:23.451Z,16.20
2022-08-14T00:48:09.939Z,16.20
2022-08-14T00:49:43.697Z,16.20
2022-08-14T00:51:23.391Z,16.20
2022-08-14T00:53:10.667Z,16.20
2022-08-14T00:54:44.334Z,16.20
2022-08-14T00:56:24.618Z,16.10
2022-08-14T00:58:32.935Z,16.10
2022-08-14T01:00:34.018Z,16.10
2022-08-14T01:02:21.662Z,16.10
2022-08-14T01:04:05.713Z,16.10
2022-08-14T01:05:52.296Z,16.10
2022-08-14T01:07:38.710Z,16.00
2022-08-14T01:09:25.073Z,16.00
2022-08-14T01:11:03.195Z,16.00
2022-08-14T01:12:43.367Z,16.00
2022-08-14T01:14:28.591Z,16.00
2022-08-14T01:16:10.522Z,15.90
2022-08-14T01:18:09.289Z,15.90
2022-08-14T01:20:02.913Z,15.90
2022-08-14T01:21:47.100Z,15.90
2022-08-14T01:23:22.772Z,15.80
2022-08-14T01:24:57.293Z,15.80
2022-08-14T01:26:38.893Z,15.80
2022-08-14T01:28:46.331Z,15.80
2022-08-14T01:30:08.681Z,15.70
2022-08-14T01:31:50.401Z,15.70
2022-08-14T01:33:30.106Z,15.70
2022-08-14T01:35:17.750Z,15.70
2022-08-14T01:36:59.131Z,15.70
2022-08-14T01:38:34.407Z,15.70
2022-08-14T01:40:12.568Z,15.60
2022-08-14T01:41:58.561Z,15.60
2022-08-14T01:43:41.583Z,15.60
2022-08-14T01:45:40.071Z,15.50
2022-08-14T01:47:21.910Z,15.50
2022-08-14T01:48:57.332Z,15.50
2022-08-14T01:50:35.285Z,15.50
2022-08-14T01:52:13.493Z,15.50
2022-08-14T01:54:14.291Z,15.40
2022-08-14T01:55:55.812Z,15.40
2022-08-14T01:57:49.270Z,15.40
2022-08-14T01:59:37.974Z,15.40
2022-08-14T02:01:12.355Z,15.40
2022-08-14T02:02:52.640Z,15.40
2022-08-14T02:04:55.007Z,15.30
2022-08-14T02:06:33.359Z,15.30
2022-08-14T02:08:11.957Z,15.30
2022-08-14T02:09:55.853Z,15.30
2022-08-14T02:11:29.577Z,15.30
2022-08-14T02:13:08.119Z,15.30
2022-08-14T02:14:59.147Z,15.20
2022-08-14T02:16:58.957Z,15.20
2022-08-14T02:18:33.725Z,15.20
2022-08-14T02:20:14.712Z,15.10
2022-08-14T02:21:56.178Z,15.10
2022-08-14T02:23:37.045Z,15.10
2022-08-14T02:25:12.052Z,15.10
2022-08-14T02:28:18.761Z,15.00
2022-08-14T02:28:57.247Z,15.00
2022-08-14T02:30:33.678Z,15.00
2022-08-14T02:32:10.728Z,15.00
2022-08-14T02:34:22.427Z,14.90
2022-08-14T02:36:58.679Z,14.90
2022-08-14T02:37:59.788Z,14.90
2022-08-14T02:39:37.286Z,14.90
2022-08-14T02:41:17.483Z,14.90
2022-08-14T02:42:57.622Z,14.90
2022-08-14T02:44:39.705Z,14.80
2022-08-14T02:46:20.616Z,14.80
2022-08-14T02:48:10.393Z,14.80
2022-08-14T02:50:04.308Z,14.80
2022-08-14T02:51:41.220Z,14.80
2022-08-14T02:53:18.771Z,14.70
2022-08-14T02:54:53.193Z,14.70
2022-08-14T02:57:15.859Z,14.70
2022-08-14T02:58:41.807Z,14.70
2022-08-14T03:00:25.004Z,14.70
2022-08-14T03:02:00.613Z,14.70
2022-08-14T03:03:41.539Z,14.60
2022-08-14T03:05:17.395Z,14.60
2022-08-14T03:07:06.491Z,14.60
2022-08-14T03:08:46.060Z,14.60
2022-08-14T03:10:26.588Z,14.60
2022-08-14T03:12:05.877Z,14.60
2022-08-14T03:13:43.348Z,14.60
2022-08-14T03:15:19.600Z,14.60
2022-08-14T03:16:57.347Z,14.50
2022-08-14T03:18:32.868Z,14.50
2022-08-14T03:20:14.742Z,14.50
2022-08-14T03:21:53.709Z,14.50
2022-08-14T03:23:27.852Z,14.50
2022-08-14T03:25:02.231Z,14.50
2022-08-14T03:26:41.364Z,14.50
2022-08-14T03:28:33.359Z,14.50
2022-08-14T03:30:14.297Z,14.50
2022-08-14T03:31:51.185Z,14.50
2022-08-14T03:33:28.268Z,14.50
2022-08-14T03:35:12.881Z,14.50
2022-08-14T03:37:37.422Z,14.40
2022-08-14T03:39:15.296Z,14.40
2022-08-14T03:40:51.433Z,14.40
2022-08-14T03:42:31.021Z,14.40
2022-08-14T03:45:27.290Z,14.40
2022-08-14T03:46:49.204Z,14.40
2022-08-14T03:48:30.369Z,14.40
2022-08-14T03:50:11.112Z,14.40
2022-08-14T03:51:47.255Z,14.40
2022-08-14T03:53:23.160Z,14.30
2022-08-14T03:54:58.780Z,14.30
2022-08-14T03:56:34.027Z,14.30
2022-08-14T03:58:09.571Z,14.30
2022-08-14T03:59:50.372Z,14.30
2022-08-14T04:01:39.186Z,14.30
2022-08-14T04:03:24.118Z,14.30
2022-08-14T04:05:08.209Z,14.30
2022-08-14T04:06:51.302Z,14.30
2022-08-14T04:08:30.677Z,14.20
2022-08-14T04:10:10.169Z,14.30
2022-08-14T04:11:43.565Z,14.30
2022-08-14T04:13:18.132Z,14.30
2022-08-14T04:14:52.390Z,14.20
2022-08-14T04:16:31.525Z,14.20
2022-08-14T04:18:08.439Z,14.20
2022-08-14T04:19:46.630Z,14.20
2022-08-14T04:21:24.380Z,14.20
2022-08-14T04:22:59.212Z,14.20
2022-08-14T04:24:38.416Z,14.10
2022-08-14T04:26:27.462Z,14.10
2022-08-14T04:29:05.362Z,14.10
2022-08-14T04:30:12.476Z,14.10
2022-08-14T04:33:00.365Z,14.10
2022-08-14T04:33:58.119Z,14.10
2022-08-14T04:35:56.594Z,14.10
2022-08-14T04:37:53.581Z,14.10
2022-08-14T04:39:57.204Z,14.10
2022-08-14T04:42:11.833Z,14.10
2022-08-14T04:43:50.398Z,14.10
2022-08-14T04:45:29.695Z,14.00
2022-08-14T04:47:25.919Z,14.00
2022-08-14T04:49:07.858Z,14.00
2022-08-14T04:50:49.082Z,14.00
2022-08-14T04:52:27.547Z,14.00
2022-08-14T04:54:02.239Z,14.00
2022-08-14T04:55:36.607Z,14.00
2022-08-14T04:57:13.293Z,14.00
2022-08-14T04:58:49.158Z,14.00
2022-08-14T05:00:22.389Z,13.90
2022-08-14T05:01:58.450Z,13.90
2022-08-14T05:03:39.003Z,13.90
2022-08-14T05:05:17.149Z,13.90
2022-08-14T05:06:56.128Z,14.00
2022-08-14T05:08:56.700Z,14.00
2022-08-14T05:10:32.123Z,13.90
2022-08-14T05:13:11.847Z,14.00
2022-08-14T05:14:33.896Z,13.90
2022-08-14T05:16:03.752Z,13.90
2022-08-14T05:17:58.640Z,14.00
2022-08-14T05:19:44.925Z,14.00
2022-08-14T05:22:00.579Z,13.90
2022-08-14T05:23:35.444Z,13.90
2022-08-14T05:25:11.163Z,13.90
2022-08-14T05:26:46.698Z,13.90
2022-08-14T05:28:25.671Z,13.90
2022-08-14T05:30:07.792Z,13.90
2022-08-14T05:31:41.996Z,14.00
2022-08-14T05:33:22.138Z,14.00
2022-08-14T05:34:59.826Z,13.90
2022-08-14T05:36:33.724Z,14.00
2022-08-14T05:38:22.316Z,14.00
2022-08-14T05:40:13.503Z,14.00
2022-08-14T05:41:53.865Z,14.00
2022-08-14T05:43:40.939Z,14.00
2022-08-14T05:45:17.143Z,14.10
2022-08-14T05:46:50.501Z,14.10
2022-08-14T05:48:33.437Z,14.10
2022-08-14T05:50:18.678Z,14.10
2022-08-14T05:51:52.724Z,14.10
2022-08-14T05:53:29.032Z,14.10
2022-08-14T05:55:12.452Z,14.20
2022-08-14T05:56:46.314Z,14.20
2022-08-14T05:58:20.079Z,14.20
2022-08-14T05:59:55.959Z,14.20
2022-08-14T06:01:28.832Z,14.30
2022-08-14T06:03:09.292Z,14.30
2022-08-14T06:04:53.137Z,14.30
2022-08-14T06:06:26.892Z,14.40
2022-08-14T06:08:01.475Z,14.40
2022-08-14T06:09:40.678Z,14.50
2022-08-14T06:11:20.355Z,14.50
2022-08-14T06:13:05.053Z,14.60
2022-08-14T06:14:39.206Z,14.70
2022-08-14T06:16:17.744Z,14.70
2022-08-14T06:17:59.623Z,14.80
2022-08-14T06:19:33.604Z,14.90
2022-08-14T06:21:15.751Z,14.90
2022-08-14T06:22:53.825Z,15.00
2022-08-14T06:24:27.533Z,15.10
2022-08-14T06:26:04.908Z,15.20
2022-08-14T06:27:39.103Z,15.30
2022-08-14T06:29:15.971Z,15.40
2022-08-14T06:30:52.711Z,15.40
2022-08-14T06:32:36.904Z,15.50
2022-08-14T06:35:02.762Z,15.60
2022-08-14T06:36:19.950Z,15.70
2022-08-14T06:37:59.882Z,15.80
2022-08-14T06:39:38.080Z,15.90
2022-08-14T06:41:13.904Z,16.00
2022-08-14T06:43:00.256Z,16.10
2022-08-14T06:44:38.789Z,16.20
2022-08-14T06:46:23.093Z,16.30
2022-08-14T06:48:17.400Z,16.30
2022-08-14T06:49:56.492Z,16.50
2022-08-14T06:51:44.419Z,16.50
2022-08-14T06:53:20.976Z,16.60
2022-08-14T06:54:56.977Z,16.70
2022-08-14T06:56:30.500Z,16.80
2022-08-14T06:58:05.938Z,16.90
2022-08-14T07:00:00.284Z,16.90
2022-08-14T07:01:51.911Z,17.00
2022-08-14T07:03:51.050Z,17.10
2022-08-14T07:05:55.246Z,17.20
2022-08-14T07:07:39.300Z,17.30
2022-08-14T07:09:16.848Z,17.40
2022-08-14T07:11:00.791Z,17.50
2022-08-14T07:13:02.108Z,17.60
2022-08-14T07:14:30.222Z,17.70
2022-08-14T07:16:05.907Z,17.80
2022-08-14T07:17:47.236Z,17.90
2022-08-14T07:19:29.621Z,18.00
2022-08-14T07:21:07.222Z,18.00
2022-08-14T07:22:49.968Z,18.10
2022-08-14T07:24:32.320Z,18.30
2022-08-14T07:26:10.919Z,18.30
2022-08-14T07:27:46.796Z,18.50
2022-08-14T07:29:26.011Z,18.60
2022-08-14T07:31:05.019Z,18.60
2022-08-14T07:32:38.053Z,18.80
2022-08-14T07:34:13.018Z,18.90
2022-08-14T07:36:26.438Z,19.00
2022-08-14T07:38:10.359Z,19.10
2022-08-14T07:39:51.307Z,19.20
2022-08-14T07:41:25.512Z,19.30
2022-08-14T07:43:14.226Z,19.50
2022-08-14T07:44:52.872Z,19.60
2022-08-14T07:46:30.867Z,19.70
2022-08-14T07:48:06.612Z,19.80
2022-08-14T07:49:59.967Z,20.00
2022-08-14T07:51:41.853Z,20.10
2022-08-14T07:53:15.899Z,20.30
2022-08-14T07:54:50.747Z,20.40
2022-08-14T07:56:47.062Z,20.60
2022-08-14T07:58:34.153Z,20.70
2022-08-14T08:00:31.285Z,20.90
2022-08-14T08:02:18.464Z,21.10
2022-08-14T08:03:59.646Z,21.20
2022-08-14T08:05:33.875Z,21.40
2022-08-14T08:07:13.518Z,21.50
2022-08-14T08:09:00.906Z,21.70
2022-08-14T08:11:01.875Z,21.80
2022-08-14T08:12:35.763Z,22.00
2022-08-14T08:14:17.247Z,22.20
2022-08-14T08:15:56.575Z,22.30
2022-08-14T08:17:34.991Z,22.50
2022-08-14T08:19:18.753Z,22.60
2022-08-14T08:20:55.833Z,22.80
2022-08-14T08:22:33.903Z,22.80
2022-08-14T08:24:08.519Z,23.00
2022-08-14T08:25:45.707Z,23.10
2022-08-14T08:27:21.465Z,23.20
2022-08-14T08:28:58.206Z,23.30
2022-08-14T08:30:49.542Z,23.50
2022-08-14T08:32:29.678Z,23.60
2022-08-14T08:34:07.174Z,23.70
2022-08-14T08:35:51.745Z,23.80
2022-08-14T08:37:25.301Z,24.00
2022-08-14T08:39:14.968Z,24.10
2022-08-14T08:41:00.232Z,24.20
2022-08-14T08:42:47.637Z,24.30
2022-08-14T08:44:34.545Z,24.40
2022-08-14T08:46:21.125Z,24.50
2022-08-14T08:47:56.912Z,24.70
2022-08-14T08:49:48.528Z,24.80
2022-08-14T08:51:38.545Z,24.80
2022-08-14T08:53:16.628Z,24.90
2022-08-14T08:54:56.112Z,25.10
2022-08-14T08:56:42.958Z,25.20
2022-08-14T08:58:25.150Z,25.20
2022-08-14T09:00:02.101Z,25.30
2022-08-14T09:01:36.495Z,25.40
2022-08-14T09:03:15.668Z,25.50
2022-08-14T09:04:53.521Z,25.60
2022-08-14T09:07:01.451Z,25.70
2022-08-14T09:08:32.984Z,25.70
2022-08-14T09:10:11.841Z,25.90
2022-08-14T09:11:51.943Z,25.90
2022-08-14T09:13:26.511Z,26.10
2022-08-14T09:15:08.996Z,26.10
2022-08-14T09:16:50.330Z,26.20
2022-08-14T09:18:27.093Z,26.40
2022-08-14T09:20:02.302Z,26.40
2022-08-14T09:21:43.524Z,26.50
2022-08-14T09:23:18.131Z,26.60
2022-08-14T09:25:01.592Z,26.60
2022-08-14T09:26:39.764Z,26.70
2022-08-14T09:28:14.526Z,26.70
2022-08-14T09:29:54.262Z,26.80
2022-08-14T09:31:42.828Z,26.80
2022-08-14T09:33:56.392Z,26.80
2022-08-14T09:35:56.726Z,26.80
2022-08-14T09:37:41.865Z,26.90
2022-08-14T09:39:40.510Z,27.00
2022-08-14T09:42:17.403Z,26.90
2022-08-14T09:43:46.504Z,27.00
2022-08-14T09:45:40.075Z,27.00
2022-08-14T09:47:46.508Z,27.00
2022-08-14T09:49:34.120Z,27.10
2022-08-14T09:51:25.522Z,27.10
2022-08-14T09:53:04.340Z,27.20
2022-08-14T09:54:43.062Z,27.20
2022-08-14T09:56:30.514Z,27.30
2022-08-14T09:58:22.882Z,27.40
2022-08-14T10:00:28.969Z,27.50
2022-08-14T10:02:18.430Z,27.50
2022-08-14T10:03:55.953Z,27.60
2022-08-14T10:05:39.061Z,27.70
2022-08-14T10:07:17.837Z,27.80
2022-08-14T10:08:55.444Z,27.80
2022-08-14T10:10:34.282Z,27.90
2022-08-14T10:12:13.320Z,27.90
2022-08-14T10:14:29.005Z,28.00
2022-08-14T10:16:25.594Z,28.10
2022-08-14T10:18:17.230Z,28.20
2022-08-14T10:19:53.853Z,28.20
2022-08-14T10:21:32.037Z,28.30
2022-08-14T10:23:23.221Z,28.40
2022-08-14T10:24:57.516Z,28.40
2022-08-14T10:26:33.684Z,28.50
2022-08-14T10:28:06.424Z,28.50
2022-08-14T10:30:03.624Z,28.60
2022-08-14T10:31:44.519Z,28.60
2022-08-14T10:33:34.038Z,28.60
2022-08-14T10:35:14.077Z,28.70
2022-08-14T10:36:49.933Z,28.70
2022-08-14T10:38:32.990Z,28.80
2022-08-14T10:40:36.746Z,28.80
2022-08-14T10:42:16.293Z,28.90
2022-08-14T10:44:21.319Z,29.00
2022-08-14T10:46:21.442Z,29.10
2022-08-14T10:48:09.466Z,29.20
2022-08-14T10:50:00.329Z,29.30
2022-08-14T10:51:36.229Z,29.40
2022-08-14T10:53:18.463Z,29.40
2022-08-14T10:55:09.681Z,29.50
2022-08-14T10:56:51.837Z,29.50
2022-08-14T10:58:35.992Z,29.50
2022-08-14T11:00:30.036Z,29.60
2022-08-14T11:02:44.920Z,29.60
2022-08-14T11:04:30.320Z,29.60
2022-08-14T11:06:19.604Z,29.60
2022-08-14T11:08:09.154Z,29.60
2022-08-14T11:09:57.491Z,29.70
2022-08-14T11:11:37.164Z,29.60
2022-08-14T11:13:12.042Z,29.60
2022-08-14T11:14:58.833Z,29.60
2022-08-14T11:16:36.012Z,29.70
2022-08-14T11:18:20.753Z,29.70
2022-08-14T11:20:14.173Z,29.70
2022-08-14T11:21:51.680Z,29.70
2022-08-14T11:23:38.151Z,29.70
2022-08-14T11:25:16.407Z,29.80
2022-08-14T11:26:56.401Z,29.80
2022-08-14T11:28:46.941Z,29.80
2022-08-14T11:30:51.337Z,29.70
2022-08-14T11:32:20.059Z,29.80
2022-08-14T11:33:57.903Z,29.70
2022-08-14T11:35:47.453Z,29.80
2022-08-14T11:37:31.602Z,29.80
2022-08-14T11:39:33.746Z,29.80
2022-08-14T11:41:12.275Z,29.80
2022-08-14T11:42:56.667Z,29.90
2022-08-14T11:44:45.612Z,29.90
2022-08-14T11:46:30.585Z,29.90
2022-08-14T11:49:03.870Z,29.90
2022-08-14T11:50:33.811Z,30.00
2022-08-14T11:52:15.689Z,30.00
2022-08-14T11:54:02.663Z,30.00
2022-08-14T11:55:39.963Z,30.00
2022-08-14T11:57:19.895Z,30.00
2022-08-14T11:58:59.352Z,30.00
2022-08-14T12:00:39.564Z,30.00
2022-08-14T12:02:38.909Z,30.00
2022-08-14T12:04:31.838Z,30.00
2022-08-14T12:06:29.772Z,30.00
2022-08-14T12:08:12.074Z,30.00
2022-08-14T12:09:52.792Z,30.00
2022-08-14T12:11:47.496Z,30.00
2022-08-14T12:13:32.441Z,29.90
2022-08-14T12:15:09.535Z,29.90
2022-08-14T12:16:45.463Z,29.90
2022-08-14T12:18:32.657Z,29.90
2022-08-14T12:20:12.008Z,29.90
2022-08-14T12:21:53.748Z,29.90
2022-08-14T12:23:31.390Z,29.80
2022-08-14T12:25:11.411Z,29.80
2022-08-14T12:26:57.821Z,29.80
2022-08-14T12:28:33.998Z,29.80
2022-08-14T12:30:39.598Z,29.80
2022-08-14T12:32:17.722Z,29.80
2022-08-14T12:34:00.033Z,29.80
2022-08-14T12:35:42.614Z,29.90
2022-08-14T12:37:17.096Z,29.80
2022-08-14T12:38:56.514Z,29.90
2022-08-14T12:40:32.013Z,29.80
2022-08-14T12:42:11.933Z,29.90
2022-08-14T12:44:08.293Z,29.90
2022-08-14T12:45:51.171Z,29.80
2022-08-14T12:47:31.321Z,29.80
2022-08-14T12:49:16.129Z,29.80
2022-08-14T12:50:53.097Z,29.80
2022-08-14T12:52:41.704Z,29.80
2022-08-14T12:54:32.234Z,29.80
2022-08-14T12:56:22.211Z,29.80
2022-08-14T12:58:06.080Z,29.80
2022-08-14T13:00:23.154Z,29.90
2022-08-14T13:02:07.525Z,29.90
2022-08-14T13:03:51.826Z,29.90
2022-08-14T13:05:30.051Z,29.90
2022-08-14T13:07:08.384Z,29.90
2022-08-14T13:08:53.322Z,29.90
2022-08-14T13:10:51.183Z,30.00
2022-08-14T13:12:32.017Z,30.10
2022-08-14T13:14:17.262Z,30.20
2022-08-14T13:15:56.250Z,30.20
2022-08-14T13:17:41.743Z,30.30
2022-08-14T13:19:18.433Z,30.40
2022-08-14T13:20:59.656Z,30.50
2022-08-14T13:22:38.326Z,30.60
2022-08-14T13:24:21.674Z,30.60
2022-08-14T13:25:58.044Z,30.70
2022-08-14T13:27:40.527Z,30.80
2022-08-14T13:29:19.055Z,30.90
2022-08-14T13:30:58.602Z,30.90
2022-08-14T13:32:36.221Z,31.00
2022-08-14T13:34:16.913Z,31.10
2022-08-14T13:35:57.431Z,31.10
2022-08-14T13:37:39.868Z,31.20
2022-08-14T13:39:20.556Z,31.30
2022-08-14T13:40:57.327Z,31.40
2022-08-14T13:42:31.563Z,31.40
2022-08-14T13:44:07.947Z,31.50
2022-08-14T13:46:00.834Z,31.50
2022-08-14T13:47:45.245Z,31.50
2022-08-14T13:49:21.119Z,31.60
2022-08-14T13:51:11.036Z,31.60
2022-08-14T13:52:54.782Z,31.60
2022-08-14T13:54:34.928Z,31.70
2022-08-14T13:56:15.275Z,31.60
2022-08-14T13:58:11.544Z,31.60
2022-08-14T14:00:10.314Z,31.60
2022-08-14T14:01:51.714Z,31.50
2022-08-14T14:03:32.814Z,31.50
2022-08-14T14:05:08.335Z,31.50
2022-08-14T14:06:51.852Z,31.40
2022-08-14T14:08:45.733Z,31.40
2022-08-14T14:10:28.400Z,31.30
2022-08-14T14:12:04.046Z,31.30
2022-08-14T14:13:41.887Z,31.20
2022-08-14T14:15:33.833Z,31.20
2022-08-14T14:17:24.287Z,31.20
2022-08-14T14:19:06.912Z,31.20
2022-08-14T14:20:46.496Z,31.20
2022-08-14T14:22:36.081Z,31.20
2022-08-14T14:24:18.836Z,31.20
2022-08-14T14:25:57.481Z,31.20
2022-08-14T14:27:40.784Z,31.20
2022-08-14T14:29:17.915Z,31.20
2022-08-14T14:31:05.990Z,31.10
2022-08-14T14:32:52.743Z,31.10
2022-08-14T14:34:39.304Z,31.10
2022-08-14T14:36:23.284Z,31.10
2022-08-14T14:38:04.116Z,31.10
2022-08-14T14:40:54.447Z,31.10
2022-08-14T14:41:43.722Z,31.10
2022-08-14T14:43:19.703Z,31.10
2022-08-14T14:45:09.159Z,31.10
2022-08-14T14:46:50.188Z,31.10
2022-08-14T14:48:31.363Z,31.00
2022-08-14T14:50:11.009Z,31.00
2022-08-14T14:51:51.326Z,31.00
2022-08-14T14:53:39.276Z,31.00
2022-08-14T14:55:16.990Z,31.00
2022-08-14T14:56:56.479Z,30.90
2022-08-14T14:58:32.732Z,30.90
2022-08-14T15:00:12.571Z,30.90
2022-08-14T15:01:51.577Z,30.90
2022-08-14T15:03:27.152Z,30.90
2022-08-14T15:05:04.497Z,30.90
2022-08-14T15:06:47.643Z,31.00
2022-08-14T15:08:26.783Z,31.00
2022-08-14T15:10:27.613Z,31.00
2022-08-14T15:12:34.448Z,31.10
2022-08-14T15:14:54.837Z,31.20
2022-08-14T15:15:59.842Z,31.30
2022-08-14T15:17:41.210Z,31.40
2022-08-14T15:19:15.291Z,31.40
2022-08-14T15:20:57.039Z,31.50
2022-08-14T15:22:39.563Z,31.50
2022-08-14T15:24:21.007Z,31.50
2022-08-14T15:26:07.595Z,31.50
2022-08-14T15:27:44.370Z,31.50
2022-08-14T15:29:19.273Z,31.60
2022-08-14T15:30:58.879Z,31.70
2022-08-14T15:32:33.136Z,31.80
2022-08-14T15:34:43.267Z,31.80
2022-08-14T15:36:16.696Z,31.90
2022-08-14T15:38:08.682Z,31.90
2022-08-14T15:39:42.826Z,32.00
2022-08-14T15:41:17.925Z,32.10
2022-08-14T15:42:51.304Z,32.10
2022-08-14T15:44:31.249Z,32.10
2022-08-14T15:46:09.817Z,32.20
2022-08-14T15:48:03.267Z,32.20
2022-08-14T15:49:38.091Z,32.30
2022-08-14T15:51:13.627Z,32.30
2022-08-14T15:52:50.224Z,32.20
2022-08-14T15:54:24.331Z,32.20
2022-08-14T15:56:06.159Z,32.20
2022-08-14T15:58:02.255Z,32.20
2022-08-14T15:59:58.479Z,32.10
2022-08-14T16:01:53.346Z,32.10
2022-08-14T16:03:36.570Z,32.10
2022-08-14T16:05:14.676Z,32.10
2022-08-14T16:06:54.768Z,32.10
2022-08-14T16:08:30.673Z,32.00
2022-08-14T16:10:28.334Z,32.00
2022-08-14T16:11:59.407Z,32.00
2022-08-14T16:13:41.102Z,31.90
2022-08-14T16:15:18.119Z,31.90
2022-08-14T16:16:56.704Z,31.80
2022-08-14T16:18:36.444Z,31.80
2022-08-14T16:20:12.020Z,31.70
2022-08-14T16:21:58.351Z,31.70
2022-08-14T16:23:41.307Z,31.70
2022-08-14T16:25:19.380Z,31.60
2022-08-14T16:26:54.661Z,31.60
2022-08-14T16:28:35.383Z,31.60
2022-08-14T16:30:25.049Z,31.50
2022-08-14T16:32:32.873Z,31.50
2022-08-14T16:33:59.814Z,31.50
2022-08-14T16:35:42.370Z,31.50
2022-08-14T16:37:31.137Z,31.50
2022-08-14T16:39:08.302Z,31.50
2022-08-14T16:40:45.470Z,31.40
2022-08-14T16:42:39.087Z,31.40
2022-08-14T16:44:31.482Z,31.40
2022-08-14T16:46:08.940Z,31.30
2022-08-14T16:47:44.681Z,31.30
2022-08-14T16:49:21.743Z,31.20
2022-08-14T16:50:57.112Z,31.10
2022-08-14T16:52:44.216Z,31.10
2022-08-14T16:54:34.396Z,31.00
2022-08-14T16:56:17.253Z,31.00
2022-08-14T16:57:59.235Z,31.00
2022-08-14T16:59:52.598Z,30.90
2022-08-14T17:01:29.680Z,30.90
2022-08-14T17:03:08.403Z,30.90
2022-08-14T17:04:45.147Z,30.80
2022-08-14T17:06:48.238Z,30.80
2022-08-14T17:08:32.563Z,30.80
2022-08-14T17:10:17.205Z,30.70
2022-08-14T17:12:09.271Z,30.70
2022-08-14T17:14:02.654Z,30.60
2022-08-14T17:15:36.795Z,30.60
2022-08-14T17:17:21.108Z,30.60
2022-08-14T17:19:03.566Z,30.60
2022-08-14T17:21:00.579Z,30.60
2022-08-14T17:22:49.158Z,30.60
2022-08-14T17:24:57.342Z,30.50
2022-08-14T17:26:37.003Z,30.50
2022-08-14T17:28:52.691Z,30.40
2022-08-14T17:30:31.977Z,30.40
2022-08-14T17:32:28.201Z,30.30
2022-08-14T17:34:05.391Z,30.30
2022-08-14T17:35:58.246Z,30.30
2022-08-14T17:37:38.739Z,30.20
2022-08-14T17:39:21.189Z,30.20
2022-08-14T17:41:17.839Z,30.20
2022-08-14T17:43:02.422Z,30.10
2022-08-14T17:44:45.448Z,30.10
2022-08-14T17:46:36.189Z,30.00
2022-08-14T17:49:14.753Z,30.00
2022-08-14T17:50:58.602Z,29.90
2022-08-14T17:52:40.775Z,29.90
2022-08-14T17:54:15.278Z,29.80
2022-08-14T17:56:02.064Z,29.80
2022-08-14T17:57:41.169Z,29.70
2022-08-14T17:59:17.649Z,29.60
2022-08-14T18:00:57.466Z,29.60
2022-08-14T18:02:35.319Z,29.50
2022-08-14T18:04:28.218Z,29.50
2022-08-14T18:06:07.019Z,29.40
2022-08-14T18:07:50.524Z,29.30
2022-08-14T18:09:56.231Z,29.30
2022-08-14T18:11:45.895Z,29.20
2022-08-14T18:13:50.245Z,29.10
2022-08-14T18:15:17.465Z,29.10
2022-08-14T18:16:55.770Z,29.00
2022-08-14T18:18:31.949Z,29.00
2022-08-14T18:20:15.909Z,28.90
2022-08-14T18:22:23.798Z,28.80
2022-08-14T18:24:03.034Z,28.70
2022-08-14T18:25:47.104Z,28.70
2022-08-14T18:27:29.705Z,28.60
2022-08-14T18:29:14.659Z,28.60
2022-08-14T18:30:57.996Z,28.50
2022-08-14T18:32:54.903Z,28.40
2022-08-14T18:34:50.721Z,28.30
2022-08-14T18:36:47.185Z,28.20
2022-08-14T18:38:55.128Z,28.10
2022-08-14T18:40:37.990Z,28.10
2022-08-14T18:42:45.620Z,28.00
2022-08-14T18:45:12.723Z,27.80
2022-08-14T18:47:23.673Z,27.80
2022-08-14T18:49:15.568Z,27.70
2022-08-14T18:50:52.930Z,27.60
2022-08-14T18:52:45.007Z,27.50
2022-08-14T18:54:38.234Z,27.40
2022-08-14T18:56:12.534Z,27.40
2022-08-14T18:58:27.816Z,27.30
2022-08-14T19:00:51.270Z,27.20
2022-08-14T19:02:44.454Z,27.10
2022-08-14T19:04:38.365Z,27.00
2022-08-14T19:06:16.822Z,26.90
2022-08-14T19:08:24.886Z,26.80
2022-08-14T19:10:02.228Z,26.70
2022-08-14T19:11:50.338Z,26.60
2022-08-14T19:13:47.872Z,26.50
2022-08-14T19:15:31.359Z,26.50
2022-08-14T19:17:06.043Z,26.30
2022-08-14T19:18:52.037Z,26.20
2022-08-14T19:20:27.290Z,26.10
2022-08-14T19:22:01.875Z,26.10
2022-08-14T19:24:27.675Z,26.00
2022-08-14T19:26:33.909Z,25.90
2022-08-14T19:28:30.843Z,25.80
2022-08-14T19:30:25.566Z,25.70
2022-08-14T19:32:06.106Z,25.60
2022-08-14T19:33:53.775Z,25.50
2022-08-14T19:35:55.679Z,25.50
2022-08-14T19:37:52.582Z,25.40
2022-08-14T19:39:46.518Z,25.30
2022-08-14T19:41:29.554Z,25.20
2022-08-14T19:43:06.571Z,25.10
2022-08-14T19:44:44.299Z,25.00
2022-08-14T19:46:39.032Z,25.00
2022-08-14T19:48:24.260Z,24.90
2022-08-14T19:50:24.464Z,24.80
2022-08-14T19:51:52.931Z,24.70
2022-08-14T19:53:29.363Z,24.60
2022-08-14T19:55:02.743Z,24.60
2022-08-14T19:56:41.444Z,24.50
2022-08-14T19:58:27.993Z,24.40
2022-08-14T20:00:28.192Z,24.40
2022-08-14T20:02:02.871Z,24.30
2022-08-14T20:04:00.627Z,24.20
2022-08-14T20:05:45.607Z,24.20
2022-08-14T20:07:59.403Z,24.10
2022-08-14T20:11:12.351Z,24.00
2022-08-14T20:12:04.689Z,23.90
2022-08-14T20:13:39.354Z,23.80
2022-08-14T20:15:15.474Z,23.80
2022-08-14T20:17:04.696Z,23.70
2022-08-14T20:18:50.163Z,23.70
2022-08-14T20:20:31.431Z,23.60
2022-08-14T20:22:37.255Z,23.50
2022-08-14T20:24:31.122Z,23.40
2022-08-14T20:26:30.830Z,23.30
2022-08-14T20:28:30.040Z,23.20
2022-08-14T20:30:33.550Z,23.20
2022-08-14T20:32:14.673Z,23.10
2022-08-14T20:34:04.509Z,23.00
2022-08-14T20:35:46.896Z,23.00
2022-08-14T20:37:22.741Z,22.90
2022-08-14T20:38:58.486Z,22.90
2022-08-14T20:40:37.515Z,22.80
2022-08-14T20:42:43.915Z,22.80
2022-08-14T20:44:42.377Z,22.70
2022-08-14T20:46:23.444Z,22.70
2022-08-14T20:48:03.150Z,22.60
2022-08-14T20:49:43.072Z,22.50
2022-08-14T20:51:26.697Z,22.50
2022-08-14T20:53:33.411Z,22.40
2022-08-14T20:55:29.111Z,22.40
2022-08-14T20:57:08.602Z,22.30
2022-08-14T20:58:44.088Z,22.20
2022-08-14T21:00:52.242Z,22.20
2022-08-14T21:02:50.501Z,22.10
2022-08-14T21:04:31.753Z,22.00
2022-08-14T21:06:16.061Z,22.00
2022-08-14T21:07:52.090Z,21.90
2022-08-14T21:10:05.353Z,21.90
2022-08-14T21:11:26.122Z,21.80
2022-08-14T21:13:27.734Z,21.70
2022-08-14T21:14:52.236Z,21.70
2022-08-14T21:16:33.663Z,21.60
2022-08-14T21:18:11.675Z,21.60
2022-08-14T21:19:50.533Z,21.50
2022-08-14T21:21:40.805Z,21.50
2022-08-14T21:23:15.944Z,21.40
2022-08-14T21:24:49.459Z,21.30
2022-08-14T21:26:52.732Z,21.30
2022-08-14T21:28:35.320Z,21.20
2022-08-14T21:30:14.697Z,21.20
2022-08-14T21:31:55.851Z,21.10
2022-08-14T21:33:30.830Z,21.10
2022-08-14T21:35:10.360Z,21.00
2022-08-14T21:36:51.728Z,21.00
2022-08-14T21:38:34.251Z,20.90
2022-08-14T21:40:39.902Z,20.90
2022-08-14T21:42:05.862Z,20.80
2022-08-14T21:43:39.760Z,20.70
2022-08-14T21:45:14.561Z,20.70
2022-08-14T21:46:54.163Z,20.70
2022-08-14T21:48:32.496Z,20.60
2022-08-14T21:50:40.056Z,20.60
2022-08-14T21:52:50.320Z,20.50
2022-08-14T21:54:06.719Z,20.50
2022-08-14T21:56:00.834Z,20.50
2022-08-14T21:57:56.485Z,20.40
2022-08-14T21:59:34.407Z,20.40
2022-08-14T22:01:10.349Z,20.30
2022-08-14T22:02:46.004Z,20.30
2022-08-14T22:04:33.520Z,20.30
2022-08-14T22:06:12.294Z,20.20
2022-08-14T22:07:57.085Z,20.20
2022-08-14T22:09:36.698Z,20.10
2022-08-14T22:11:10.772Z,20.10
2022-08-14T22:13:00.400Z,20.10
2022-08-14T22:14:43.685Z,20.00
2022-08-14T22:17:00.228Z,20.00
2022-08-14T22:18:12.227Z,19.90
2022-08-14T22:19:57.036Z,19.90
2022-08-14T22:21:31.120Z,19.90
2022-08-14T22:23:09.530Z,19.80
2022-08-14T22:24:53.338Z,19.80
2022-08-14T22:26:32.365Z,19.80